sensor_id;sensor_type;location;lat;lon;timestamp;P1;durP1;ratioP1;P2;durP2;ratioP2
37677;SDS011;23517;50.390;8.616;2024-02-26T00:01:10;1.10;;;0.90;;
37677;SDS011;23517;50.390;8.616;2024-02-26T00:03:36;1.10;;;0.93;;
37677;SDS011;23517;50.390;8.616;2024-02-26T00:06:03;1.63;;;1.20;;
37677;SDS011;23517;50.390;8.616;2024-02-26T00:08:30;1.65;;;0.93;;
37677;SDS011;23517;50.390;8.616;2024-02-26T00:10:57;1.60;;;0.80;;
37677;SDS011;23517;50.390;8.616;2024-02-26T00:13:24;1.23;;;0.68;;
37677;SDS011;23517;50.390;8.616;2024-02-26T00:15:50;1.27;;;0.80;;
37677;SDS011;23517;50.390;8.616;2024-02-26T00:18:17;1.05;;;0.90;;
37677;SDS011;23517;50.390;8.616;2024-02-26T00:20:44;1.40;;;0.63;;
37677;SDS011;23517;50.390;8.616;2024-02-26T00:23:13;2.03;;;1.10;;
37677;SDS011;23517;50.390;8.616;2024-02-26T00:25:41;1.20;;;0.60;;
37677;SDS011;23517;50.390;8.616;2024-02-26T00:28:11;0.98;;;0.80;;
37677;SDS011;23517;50.390;8.616;2024-02-26T00:30:39;0.60;;;0.60;;
37677;SDS011;23517;50.390;8.616;2024-02-26T00:33:06;0.82;;;0.82;;
37677;SDS011;23517;50.390;8.616;2024-02-26T00:35:33;0.65;;;0.60;;
37677;SDS011;23517;50.390;8.616;2024-02-26T00:38:00;3.15;;;0.63;;
37677;SDS011;23517;50.390;8.616;2024-02-26T00:40:28;1.35;;;0.80;;
37677;SDS011;23517;50.390;8.616;2024-02-26T00:42:55;0.68;;;0.60;;
37677;SDS011;23517;50.390;8.616;2024-02-26T00:45:21;0.60;;;0.52;;
37677;SDS011;23517;50.390;8.616;2024-02-26T00:47:48;2.17;;;0.60;;
37677;SDS011;23517;50.390;8.616;2024-02-26T00:50:16;1.15;;;0.60;;
37677;SDS011;23517;50.390;8.616;2024-02-26T00:52:43;0.65;;;0.60;;
37677;SDS011;23517;50.390;8.616;2024-02-26T00:55:09;0.68;;;0.50;;
37677;SDS011;23517;50.390;8.616;2024-02-26T00:57:36;1.08;;;0.70;;
37677;SDS011;23517;50.390;8.616;2024-02-26T01:00:03;1.10;;;0.60;;
37677;SDS011;23517;50.390;8.616;2024-02-26T01:02:31;0.88;;;0.60;;
37677;SDS011;23517;50.390;8.616;2024-02-26T01:04:57;0.60;;;0.60;;
37677;SDS011;23517;50.390;8.616;2024-02-26T01:07:24;0.68;;;0.60;;
37677;SDS011;23517;50.390;8.616;2024-02-26T01:09:51;2.70;;;0.70;;
37677;SDS011;23517;50.390;8.616;2024-02-26T01:12:18;0.60;;;0.60;;
37677;SDS011;23517;50.390;8.616;2024-02-26T01:14:45;1.17;;;0.70;;
37677;SDS011;23517;50.390;8.616;2024-02-26T01:17:11;2.13;;;0.60;;
37677;SDS011;23517;50.390;8.616;2024-02-26T01:19:38;1.02;;;0.80;;
37677;SDS011;23517;50.390;8.616;2024-02-26T01:22:05;0.95;;;0.57;;
37677;SDS011;23517;50.390;8.616;2024-02-26T01:24:31;1.08;;;0.60;;
37677;SDS011;23517;50.390;8.616;2024-02-26T01:26:58;1.77;;;0.70;;
37677;SDS011;23517;50.390;8.616;2024-02-26T01:29:25;0.80;;;0.60;;
37677;SDS011;23517;50.390;8.616;2024-02-26T01:31:51;1.85;;;0.77;;
37677;SDS011;23517;50.390;8.616;2024-02-26T01:34:20;0.70;;;0.70;;
37677;SDS011;23517;50.390;8.616;2024-02-26T01:36:47;2.17;;;0.73;;
37677;SDS011;23517;50.390;8.616;2024-02-26T01:39:14;1.02;;;0.88;;
37677;SDS011;23517;50.390;8.616;2024-02-26T01:41:41;3.08;;;1.45;;
37677;SDS011;23517;50.390;8.616;2024-02-26T01:44:08;5.93;;;2.50;;
37677;SDS011;23517;50.390;8.616;2024-02-26T01:46:38;3.17;;;1.98;;
37677;SDS011;23517;50.390;8.616;2024-02-26T01:49:06;3.88;;;2.03;;
37677;SDS011;23517;50.390;8.616;2024-02-26T01:51:36;2.33;;;1.60;;
37677;SDS011;23517;50.390;8.616;2024-02-26T01:54:05;4.22;;;2.10;;
37677;SDS011;23517;50.390;8.616;2024-02-26T01:56:34;5.70;;;3.45;;
37677;SDS011;23517;50.390;8.616;2024-02-26T01:59:04;2.88;;;2.13;;
37677;SDS011;23517;50.390;8.616;2024-02-26T02:01:32;4.10;;;2.20;;
37677;SDS011;23517;50.390;8.616;2024-02-26T02:04:00;3.38;;;2.13;;
37677;SDS011;23517;50.390;8.616;2024-02-26T02:06:27;3.40;;;1.63;;
37677;SDS011;23517;50.390;8.616;2024-02-26T02:08:54;2.83;;;1.77;;
37677;SDS011;23517;50.390;8.616;2024-02-26T02:11:21;1.73;;;1.45;;
37677;SDS011;23517;50.390;8.616;2024-02-26T02:13:48;3.03;;;1.58;;
37677;SDS011;23517;50.390;8.616;2024-02-26T02:16:15;1.48;;;1.38;;
37677;SDS011;23517;50.390;8.616;2024-02-26T02:18:41;1.67;;;1.48;;
37677;SDS011;23517;50.390;8.616;2024-02-26T02:21:08;2.53;;;1.60;;
37677;SDS011;23517;50.390;8.616;2024-02-26T02:23:35;1.95;;;1.40;;
37677;SDS011;23517;50.390;8.616;2024-02-26T02:26:02;2.22;;;1.35;;
37677;SDS011;23517;50.390;8.616;2024-02-26T02:28:29;1.70;;;1.20;;
37677;SDS011;23517;50.390;8.616;2024-02-26T02:30:56;2.05;;;1.45;;
37677;SDS011;23517;50.390;8.616;2024-02-26T02:33:23;1.50;;;1.20;;
37677;SDS011;23517;50.390;8.616;2024-02-26T02:35:52;1.75;;;1.50;;
37677;SDS011;23517;50.390;8.616;2024-02-26T02:38:21;2.40;;;1.63;;
37677;SDS011;23517;50.390;8.616;2024-02-26T02:40:52;1.77;;;1.33;;
37677;SDS011;23517;50.390;8.616;2024-02-26T02:43:19;1.95;;;1.25;;
37677;SDS011;23517;50.390;8.616;2024-02-26T02:45:45;2.13;;;1.52;;
37677;SDS011;23517;50.390;8.616;2024-02-26T02:48:12;2.75;;;1.50;;
37677;SDS011;23517;50.390;8.616;2024-02-26T02:50:39;2.35;;;1.50;;
37677;SDS011;23517;50.390;8.616;2024-02-26T02:53:06;2.10;;;1.42;;
37677;SDS011;23517;50.390;8.616;2024-02-26T02:55:32;2.35;;;1.70;;
37677;SDS011;23517;50.390;8.616;2024-02-26T02:57:59;2.50;;;1.63;;
37677;SDS011;23517;50.390;8.616;2024-02-26T03:00:26;2.15;;;1.63;;
37677;SDS011;23517;50.390;8.616;2024-02-26T03:02:53;1.75;;;1.65;;
37677;SDS011;23517;50.390;8.616;2024-02-26T03:05:19;1.63;;;1.50;;
37677;SDS011;23517;50.390;8.616;2024-02-26T03:07:48;4.50;;;2.38;;
37677;SDS011;23517;50.390;8.616;2024-02-26T03:10:14;3.25;;;2.17;;
37677;SDS011;23517;50.390;8.616;2024-02-26T03:12:41;3.38;;;2.45;;
37677;SDS011;23517;50.390;8.616;2024-02-26T03:15:09;6.65;;;3.67;;
37677;SDS011;23517;50.390;8.616;2024-02-26T03:17:37;4.30;;;2.92;;
37677;SDS011;23517;50.390;8.616;2024-02-26T03:20:04;3.13;;;2.17;;
37677;SDS011;23517;50.390;8.616;2024-02-26T03:22:34;2.33;;;1.70;;
37677;SDS011;23517;50.390;8.616;2024-02-26T03:25:01;2.35;;;1.90;;
37677;SDS011;23517;50.390;8.616;2024-02-26T03:27:28;2.85;;;1.88;;
37677;SDS011;23517;50.390;8.616;2024-02-26T03:29:55;3.78;;;1.90;;
37677;SDS011;23517;50.390;8.616;2024-02-26T03:32:21;3.13;;;2.10;;
37677;SDS011;23517;50.390;8.616;2024-02-26T03:34:48;1.92;;;1.50;;
37677;SDS011;23517;50.390;8.616;2024-02-26T03:37:15;3.80;;;1.73;;
37677;SDS011;23517;50.390;8.616;2024-02-26T03:39:42;3.00;;;1.50;;
37677;SDS011;23517;50.390;8.616;2024-02-26T03:42:09;2.90;;;1.90;;
37677;SDS011;23517;50.390;8.616;2024-02-26T03:44:36;2.92;;;1.58;;
37677;SDS011;23517;50.390;8.616;2024-02-26T03:47:03;4.78;;;1.67;;
37677;SDS011;23517;50.390;8.616;2024-02-26T03:49:29;2.20;;;1.70;;
37677;SDS011;23517;50.390;8.616;2024-02-26T03:51:56;2.90;;;1.50;;
37677;SDS011;23517;50.390;8.616;2024-02-26T03:54:23;2.25;;;1.42;;
37677;SDS011;23517;50.390;8.616;2024-02-26T03:56:50;2.33;;;1.55;;
37677;SDS011;23517;50.390;8.616;2024-02-26T03:59:16;1.70;;;1.30;;
37677;SDS011;23517;50.390;8.616;2024-02-26T04:01:46;1.75;;;1.35;;
37677;SDS011;23517;50.390;8.616;2024-02-26T04:04:13;1.70;;;1.42;;
37677;SDS011;23517;50.390;8.616;2024-02-26T04:06:43;2.13;;;1.40;;
37677;SDS011;23517;50.390;8.616;2024-02-26T04:09:15;2.05;;;1.50;;
37677;SDS011;23517;50.390;8.616;2024-02-26T04:11:42;1.80;;;1.60;;
37677;SDS011;23517;50.390;8.616;2024-02-26T04:14:09;2.97;;;1.63;;
37677;SDS011;23517;50.390;8.616;2024-02-26T04:16:38;2.13;;;1.40;;
37677;SDS011;23517;50.390;8.616;2024-02-26T04:19:05;2.83;;;1.20;;
37677;SDS011;23517;50.390;8.616;2024-02-26T04:21:33;2.33;;;1.50;;
37677;SDS011;23517;50.390;8.616;2024-02-26T04:24:01;4.38;;;1.60;;
37677;SDS011;23517;50.390;8.616;2024-02-26T04:26:28;1.83;;;1.50;;
37677;SDS011;23517;50.390;8.616;2024-02-26T04:28:56;2.42;;;1.63;;
37677;SDS011;23517;50.390;8.616;2024-02-26T04:31:23;7.95;;;4.47;;
37677;SDS011;23517;50.390;8.616;2024-02-26T04:33:50;10.77;;;6.25;;
37677;SDS011;23517;50.390;8.616;2024-02-26T04:36:17;12.73;;;6.45;;
37677;SDS011;23517;50.390;8.616;2024-02-26T04:38:44;11.95;;;6.80;;
37677;SDS011;23517;50.390;8.616;2024-02-26T04:41:11;7.40;;;4.32;;
37677;SDS011;23517;50.390;8.616;2024-02-26T04:43:38;5.38;;;3.03;;
37677;SDS011;23517;50.390;8.616;2024-02-26T04:46:07;4.30;;;2.55;;
37677;SDS011;23517;50.390;8.616;2024-02-26T04:48:38;4.70;;;2.83;;
37677;SDS011;23517;50.390;8.616;2024-02-26T04:51:05;8.10;;;2.90;;
37677;SDS011;23517;50.390;8.616;2024-02-26T04:53:32;5.53;;;3.38;;
37677;SDS011;23517;50.390;8.616;2024-02-26T04:55:59;8.10;;;3.75;;
37677;SDS011;23517;50.390;8.616;2024-02-26T04:58:25;4.13;;;2.38;;
37677;SDS011;23517;50.390;8.616;2024-02-26T05:00:52;4.05;;;2.20;;
37677;SDS011;23517;50.390;8.616;2024-02-26T05:03:19;4.55;;;2.00;;
37677;SDS011;23517;50.390;8.616;2024-02-26T05:05:45;4.05;;;2.60;;
37677;SDS011;23517;50.390;8.616;2024-02-26T05:08:12;3.00;;;2.13;;
37677;SDS011;23517;50.390;8.616;2024-02-26T05:10:39;3.60;;;2.00;;
37677;SDS011;23517;50.390;8.616;2024-02-26T05:13:07;3.20;;;2.20;;
37677;SDS011;23517;50.390;8.616;2024-02-26T05:15:34;3.70;;;2.47;;
37677;SDS011;23517;50.390;8.616;2024-02-26T05:18:02;2.67;;;1.98;;
37677;SDS011;23517;50.390;8.616;2024-02-26T05:20:29;3.33;;;2.20;;
37677;SDS011;23517;50.390;8.616;2024-02-26T05:22:57;4.30;;;1.95;;
37677;SDS011;23517;50.390;8.616;2024-02-26T05:25:25;2.85;;;1.98;;
37677;SDS011;23517;50.390;8.616;2024-02-26T05:27:51;4.43;;;2.15;;
37677;SDS011;23517;50.390;8.616;2024-02-26T05:30:18;2.55;;;1.77;;
37677;SDS011;23517;50.390;8.616;2024-02-26T05:32:45;4.32;;;2.00;;
37677;SDS011;23517;50.390;8.616;2024-02-26T05:35:12;3.78;;;2.20;;
37677;SDS011;23517;50.390;8.616;2024-02-26T05:37:39;3.25;;;2.03;;
37677;SDS011;23517;50.390;8.616;2024-02-26T05:40:05;4.40;;;2.22;;
37677;SDS011;23517;50.390;8.616;2024-02-26T05:42:33;3.10;;;2.15;;
37677;SDS011;23517;50.390;8.616;2024-02-26T05:45:00;2.78;;;2.13;;
37677;SDS011;23517;50.390;8.616;2024-02-26T05:47:32;3.20;;;1.80;;
37677;SDS011;23517;50.390;8.616;2024-02-26T05:49:59;2.25;;;1.80;;
37677;SDS011;23517;50.390;8.616;2024-02-26T05:52:27;2.58;;;1.88;;
37677;SDS011;23517;50.390;8.616;2024-02-26T05:54:55;2.28;;;2.00;;
37677;SDS011;23517;50.390;8.616;2024-02-26T05:57:22;2.45;;;2.08;;
37677;SDS011;23517;50.390;8.616;2024-02-26T05:59:49;4.05;;;2.00;;
37677;SDS011;23517;50.390;8.616;2024-02-26T06:02:16;2.78;;;1.92;;
37677;SDS011;23517;50.390;8.616;2024-02-26T06:04:42;2.30;;;1.75;;
37677;SDS011;23517;50.390;8.616;2024-02-26T06:07:09;3.90;;;2.30;;
37677;SDS011;23517;50.390;8.616;2024-02-26T06:09:36;4.13;;;2.00;;
37677;SDS011;23517;50.390;8.616;2024-02-26T06:12:03;4.25;;;1.92;;
37677;SDS011;23517;50.390;8.616;2024-02-26T06:14:30;2.53;;;2.00;;
37677;SDS011;23517;50.390;8.616;2024-02-26T06:16:57;4.03;;;2.53;;
37677;SDS011;23517;50.390;8.616;2024-02-26T06:19:23;2.28;;;1.85;;
37677;SDS011;23517;50.390;8.616;2024-02-26T06:21:50;4.70;;;1.90;;
37677;SDS011;23517;50.390;8.616;2024-02-26T06:24:17;2.33;;;1.90;;
37677;SDS011;23517;50.390;8.616;2024-02-26T06:26:44;3.72;;;2.08;;
37677;SDS011;23517;50.390;8.616;2024-02-26T06:29:10;2.95;;;2.05;;
37677;SDS011;23517;50.390;8.616;2024-02-26T06:31:37;2.33;;;1.70;;
37677;SDS011;23517;50.390;8.616;2024-02-26T06:34:04;3.47;;;2.00;;
37677;SDS011;23517;50.390;8.616;2024-02-26T06:36:31;2.20;;;1.77;;
37677;SDS011;23517;50.390;8.616;2024-02-26T06:38:58;2.90;;;1.85;;
37677;SDS011;23517;50.390;8.616;2024-02-26T06:41:25;4.45;;;2.50;;
37677;SDS011;23517;50.390;8.616;2024-02-26T06:43:54;4.40;;;2.88;;
37677;SDS011;23517;50.390;8.616;2024-02-26T06:46:21;3.55;;;2.60;;
37677;SDS011;23517;50.390;8.616;2024-02-26T06:48:49;2.08;;;1.80;;
37677;SDS011;23517;50.390;8.616;2024-02-26T06:51:20;2.63;;;2.10;;
37677;SDS011;23517;50.390;8.616;2024-02-26T06:53:47;3.28;;;2.17;;
37677;SDS011;23517;50.390;8.616;2024-02-26T06:56:15;2.60;;;1.90;;
37677;SDS011;23517;50.390;8.616;2024-02-26T06:58:41;3.45;;;2.40;;
37677;SDS011;23517;50.390;8.616;2024-02-26T07:01:08;3.20;;;2.10;;
37677;SDS011;23517;50.390;8.616;2024-02-26T07:03:36;2.10;;;1.60;;
37677;SDS011;23517;50.390;8.616;2024-02-26T07:06:03;4.10;;;2.00;;
37677;SDS011;23517;50.390;8.616;2024-02-26T07:08:30;3.72;;;2.17;;
37677;SDS011;23517;50.390;8.616;2024-02-26T07:10:57;2.60;;;2.00;;
37677;SDS011;23517;50.390;8.616;2024-02-26T07:13:24;2.92;;;2.05;;
37677;SDS011;23517;50.390;8.616;2024-02-26T07:15:50;4.43;;;2.42;;
37677;SDS011;23517;50.390;8.616;2024-02-26T07:18:17;14.73;;;7.85;;
37677;SDS011;23517;50.390;8.616;2024-02-26T07:20:44;24.52;;;14.73;;
37677;SDS011;23517;50.390;8.616;2024-02-26T07:23:11;12.85;;;8.10;;
37677;SDS011;23517;50.390;8.616;2024-02-26T07:25:38;5.43;;;4.07;;
37677;SDS011;23517;50.390;8.616;2024-02-26T07:28:06;4.53;;;3.13;;
37677;SDS011;23517;50.390;8.616;2024-02-26T07:30:33;4.32;;;3.10;;
37677;SDS011;23517;50.390;8.616;2024-02-26T07:32:59;5.28;;;3.58;;
37677;SDS011;23517;50.390;8.616;2024-02-26T07:35:26;4.18;;;3.20;;
37677;SDS011;23517;50.390;8.616;2024-02-26T07:37:54;7.47;;;3.53;;
37677;SDS011;23517;50.390;8.616;2024-02-26T07:40:20;4.72;;;2.80;;
37677;SDS011;23517;50.390;8.616;2024-02-26T07:42:47;5.40;;;3.38;;
37677;SDS011;23517;50.390;8.616;2024-02-26T07:45:14;6.20;;;3.42;;
37677;SDS011;23517;50.390;8.616;2024-02-26T07:47:42;11.52;;;5.75;;
37677;SDS011;23517;50.390;8.616;2024-02-26T07:50:09;7.50;;;5.57;;
37677;SDS011;23517;50.390;8.616;2024-02-26T07:52:44;6.93;;;5.20;;
37677;SDS011;23517;50.390;8.616;2024-02-26T07:55:10;7.20;;;4.20;;
37677;SDS011;23517;50.390;8.616;2024-02-26T07:57:40;4.93;;;3.50;;
37677;SDS011;23517;50.390;8.616;2024-02-26T08:00:09;5.43;;;3.50;;
37677;SDS011;23517;50.390;8.616;2024-02-26T08:02:37;5.45;;;3.53;;
37677;SDS011;23517;50.390;8.616;2024-02-26T08:05:04;6.00;;;3.88;;
37677;SDS011;23517;50.390;8.616;2024-02-26T08:07:31;6.43;;;3.50;;
37677;SDS011;23517;50.390;8.616;2024-02-26T08:09:58;4.13;;;3.47;;
37677;SDS011;23517;50.390;8.616;2024-02-26T08:12:24;4.65;;;3.25;;
37677;SDS011;23517;50.390;8.616;2024-02-26T08:14:52;3.50;;;2.47;;
37677;SDS011;23517;50.390;8.616;2024-02-26T08:17:18;2.97;;;2.05;;
37677;SDS011;23517;50.390;8.616;2024-02-26T08:19:45;3.22;;;2.58;;
37677;SDS011;23517;50.390;8.616;2024-02-26T08:22:12;3.92;;;2.47;;
37677;SDS011;23517;50.390;8.616;2024-02-26T08:24:42;2.78;;;2.35;;
37677;SDS011;23517;50.390;8.616;2024-02-26T08:27:09;5.57;;;3.40;;
37677;SDS011;23517;50.390;8.616;2024-02-26T08:29:35;5.20;;;3.35;;
37677;SDS011;23517;50.390;8.616;2024-02-26T08:32:02;4.40;;;3.00;;
37677;SDS011;23517;50.390;8.616;2024-02-26T08:34:29;5.55;;;3.30;;
37677;SDS011;23517;50.390;8.616;2024-02-26T08:36:56;4.68;;;3.50;;
37677;SDS011;23517;50.390;8.616;2024-02-26T08:39:23;5.97;;;3.47;;
37677;SDS011;23517;50.390;8.616;2024-02-26T08:41:50;5.05;;;2.92;;
37677;SDS011;23517;50.390;8.616;2024-02-26T08:44:17;4.80;;;2.92;;
37677;SDS011;23517;50.390;8.616;2024-02-26T08:46:45;7.13;;;3.30;;
37677;SDS011;23517;50.390;8.616;2024-02-26T08:49:12;5.25;;;3.17;;
37677;SDS011;23517;50.390;8.616;2024-02-26T08:51:42;5.93;;;4.15;;
37677;SDS011;23517;50.390;8.616;2024-02-26T08:54:10;6.43;;;4.13;;
37677;SDS011;23517;50.390;8.616;2024-02-26T08:56:37;9.52;;;5.40;;
37677;SDS011;23517;50.390;8.616;2024-02-26T08:59:03;14.48;;;6.35;;
37677;SDS011;23517;50.390;8.616;2024-02-26T09:01:33;7.40;;;4.63;;
37677;SDS011;23517;50.390;8.616;2024-02-26T09:04:00;5.95;;;3.88;;
37677;SDS011;23517;50.390;8.616;2024-02-26T09:06:27;9.32;;;5.03;;
37677;SDS011;23517;50.390;8.616;2024-02-26T09:08:55;7.60;;;4.20;;
37677;SDS011;23517;50.390;8.616;2024-02-26T09:11:26;6.38;;;3.70;;
37677;SDS011;23517;50.390;8.616;2024-02-26T09:13:53;5.88;;;3.90;;
37677;SDS011;23517;50.390;8.616;2024-02-26T09:16:20;6.25;;;2.83;;
37677;SDS011;23517;50.390;8.616;2024-02-26T09:18:46;4.40;;;2.92;;
37677;SDS011;23517;50.390;8.616;2024-02-26T09:21:14;5.57;;;4.18;;
37677;SDS011;23517;50.390;8.616;2024-02-26T09:23:41;5.45;;;4.15;;
37677;SDS011;23517;50.390;8.616;2024-02-26T09:26:08;8.10;;;5.00;;
37677;SDS011;23517;50.390;8.616;2024-02-26T09:28:35;6.30;;;4.40;;
37677;SDS011;23517;50.390;8.616;2024-02-26T09:31:04;6.57;;;3.88;;
37677;SDS011;23517;50.390;8.616;2024-02-26T09:33:32;7.35;;;5.05;;
37677;SDS011;23517;50.390;8.616;2024-02-26T09:35:59;8.80;;;4.90;;
37677;SDS011;23517;50.390;8.616;2024-02-26T09:38:29;7.45;;;4.78;;
37677;SDS011;23517;50.390;8.616;2024-02-26T09:41:01;4.55;;;3.10;;
37677;SDS011;23517;50.390;8.616;2024-02-26T09:43:30;5.60;;;2.83;;
37677;SDS011;23517;50.390;8.616;2024-02-26T09:46:06;4.43;;;3.53;;
37677;SDS011;23517;50.390;8.616;2024-02-26T09:48:34;6.53;;;3.05;;
37677;SDS011;23517;50.390;8.616;2024-02-26T09:51:04;4.05;;;2.50;;
37677;SDS011;23517;50.390;8.616;2024-02-26T09:53:31;3.88;;;2.70;;
37677;SDS011;23517;50.390;8.616;2024-02-26T09:55:58;3.42;;;2.72;;
37677;SDS011;23517;50.390;8.616;2024-02-26T09:58:26;5.47;;;3.03;;
37677;SDS011;23517;50.390;8.616;2024-02-26T10:00:58;5.68;;;3.22;;
37677;SDS011;23517;50.390;8.616;2024-02-26T10:03:30;6.70;;;3.45;;
37677;SDS011;23517;50.390;8.616;2024-02-26T10:06:04;7.18;;;3.80;;
37677;SDS011;23517;50.390;8.616;2024-02-26T10:08:35;5.28;;;3.80;;
37677;SDS011;23517;50.390;8.616;2024-02-26T10:11:06;3.72;;;2.90;;
37677;SDS011;23517;50.390;8.616;2024-02-26T10:13:36;4.38;;;2.88;;
37677;SDS011;23517;50.390;8.616;2024-02-26T10:16:04;5.68;;;3.70;;
37677;SDS011;23517;50.390;8.616;2024-02-26T10:18:45;9.90;;;3.53;;
37677;SDS011;23517;50.390;8.616;2024-02-26T10:21:22;5.10;;;3.50;;
37677;SDS011;23517;50.390;8.616;2024-02-26T10:23:49;4.95;;;3.22;;
37677;SDS011;23517;50.390;8.616;2024-02-26T10:26:19;5.75;;;3.50;;
37677;SDS011;23517;50.390;8.616;2024-02-26T10:28:46;5.95;;;3.78;;
37677;SDS011;23517;50.390;8.616;2024-02-26T10:31:19;4.40;;;2.90;;
37677;SDS011;23517;50.390;8.616;2024-02-26T10:33:45;5.80;;;3.28;;
37677;SDS011;23517;50.390;8.616;2024-02-26T10:36:12;4.13;;;3.20;;
37677;SDS011;23517;50.390;8.616;2024-02-26T10:38:39;5.38;;;3.00;;
37677;SDS011;23517;50.390;8.616;2024-02-26T10:41:06;5.35;;;3.28;;
37677;SDS011;23517;50.390;8.616;2024-02-26T10:43:39;4.45;;;3.15;;
37677;SDS011;23517;50.390;8.616;2024-02-26T10:46:06;5.97;;;3.75;;
37677;SDS011;23517;50.390;8.616;2024-02-26T10:48:34;4.47;;;3.28;;
37677;SDS011;23517;50.390;8.616;2024-02-26T10:51:01;5.60;;;3.28;;
37677;SDS011;23517;50.390;8.616;2024-02-26T10:53:30;6.93;;;3.75;;
37677;SDS011;23517;50.390;8.616;2024-02-26T10:56:03;4.82;;;3.58;;
37677;SDS011;23517;50.390;8.616;2024-02-26T10:58:31;6.20;;;3.33;;
37677;SDS011;23517;50.390;8.616;2024-02-26T11:00:59;6.95;;;3.22;;
37677;SDS011;23517;50.390;8.616;2024-02-26T11:03:27;5.13;;;3.20;;
37677;SDS011;23517;50.390;8.616;2024-02-26T11:05:58;4.22;;;3.00;;
37677;SDS011;23517;50.390;8.616;2024-02-26T11:08:26;6.13;;;3.58;;
37677;SDS011;23517;50.390;8.616;2024-02-26T11:10:56;5.35;;;3.20;;
37677;SDS011;23517;50.390;8.616;2024-02-26T11:13:23;5.07;;;3.00;;
37677;SDS011;23517;50.390;8.616;2024-02-26T11:15:56;15.20;;;8.25;;
37677;SDS011;23517;50.390;8.616;2024-02-26T11:18:26;12.07;;;8.23;;
37677;SDS011;23517;50.390;8.616;2024-02-26T11:20:54;12.75;;;8.07;;
37677;SDS011;23517;50.390;8.616;2024-02-26T11:23:23;9.63;;;5.70;;
37677;SDS011;23517;50.390;8.616;2024-02-26T11:25:53;5.53;;;3.70;;
37677;SDS011;23517;50.390;8.616;2024-02-26T11:28:23;5.18;;;3.72;;
37677;SDS011;23517;50.390;8.616;2024-02-26T11:30:51;7.38;;;4.70;;
37677;SDS011;23517;50.390;8.616;2024-02-26T11:33:18;7.78;;;3.80;;
37677;SDS011;23517;50.390;8.616;2024-02-26T11:35:46;5.70;;;3.83;;
37677;SDS011;23517;50.390;8.616;2024-02-26T11:38:17;8.80;;;4.82;;
37677;SDS011;23517;50.390;8.616;2024-02-26T11:40:50;6.05;;;4.25;;
37677;SDS011;23517;50.390;8.616;2024-02-26T11:43:17;7.47;;;4.65;;
37677;SDS011;23517;50.390;8.616;2024-02-26T11:45:48;6.40;;;4.50;;
37677;SDS011;23517;50.390;8.616;2024-02-26T11:48:21;6.82;;;4.25;;
37677;SDS011;23517;50.390;8.616;2024-02-26T11:50:51;12.05;;;6.68;;
37677;SDS011;23517;50.390;8.616;2024-02-26T11:53:27;10.63;;;6.40;;
37677;SDS011;23517;50.390;8.616;2024-02-26T11:59:03;7.05;;;4.07;;
37677;SDS011;23517;50.390;8.616;2024-02-26T12:01:36;7.88;;;4.40;;
37677;SDS011;23517;50.390;8.616;2024-02-26T12:04:19;6.72;;;4.45;;
37677;SDS011;23517;50.390;8.616;2024-02-26T12:06:53;6.55;;;4.68;;
37677;SDS011;23517;50.390;8.616;2024-02-26T12:12:09;6.20;;;3.90;;
37677;SDS011;23517;50.390;8.616;2024-02-26T12:14:39;5.18;;;3.58;;
37677;SDS011;23517;50.390;8.616;2024-02-26T12:17:21;5.90;;;3.90;;
37677;SDS011;23517;50.390;8.616;2024-02-26T12:19:51;6.15;;;4.10;;
37677;SDS011;23517;50.390;8.616;2024-02-26T12:22:19;7.93;;;4.43;;
37677;SDS011;23517;50.390;8.616;2024-02-26T12:24:46;6.63;;;4.53;;
37677;SDS011;23517;50.390;8.616;2024-02-26T12:27:13;5.78;;;4.28;;
37677;SDS011;23517;50.390;8.616;2024-02-26T12:29:41;7.93;;;3.95;;
37677;SDS011;23517;50.390;8.616;2024-02-26T12:32:08;10.45;;;5.72;;
37677;SDS011;23517;50.390;8.616;2024-02-26T12:34:34;6.57;;;4.25;;
37677;SDS011;23517;50.390;8.616;2024-02-26T12:37:02;11.07;;;6.07;;
37677;SDS011;23517;50.390;8.616;2024-02-26T12:39:29;8.02;;;5.70;;
37677;SDS011;23517;50.390;8.616;2024-02-26T12:41:57;8.02;;;5.00;;
37677;SDS011;23517;50.390;8.616;2024-02-26T12:44:25;6.97;;;4.80;;
37677;SDS011;23517;50.390;8.616;2024-02-26T12:47:02;6.82;;;4.43;;
37677;SDS011;23517;50.390;8.616;2024-02-26T12:49:31;8.82;;;5.13;;
37677;SDS011;23517;50.390;8.616;2024-02-26T12:51:58;9.07;;;5.15;;
37677;SDS011;23517;50.390;8.616;2024-02-26T12:54:31;5.55;;;3.92;;
37677;SDS011;23517;50.390;8.616;2024-02-26T12:57:00;5.07;;;3.05;;
37677;SDS011;23517;50.390;8.616;2024-02-26T12:59:29;5.00;;;3.80;;
37677;SDS011;23517;50.390;8.616;2024-02-26T13:01:57;4.90;;;3.10;;
37677;SDS011;23517;50.390;8.616;2024-02-26T13:04:24;6.35;;;3.42;;
37677;SDS011;23517;50.390;8.616;2024-02-26T13:06:58;6.28;;;3.05;;
37677;SDS011;23517;50.390;8.616;2024-02-26T13:09:33;4.15;;;2.95;;
37677;SDS011;23517;50.390;8.616;2024-02-26T13:12:03;5.75;;;3.55;;
37677;SDS011;23517;50.390;8.616;2024-02-26T13:14:32;4.13;;;3.05;;
37677;SDS011;23517;50.390;8.616;2024-02-26T13:17:00;4.68;;;3.20;;
37677;SDS011;23517;50.390;8.616;2024-02-26T13:19:27;3.97;;;3.10;;
37677;SDS011;23517;50.390;8.616;2024-02-26T13:21:54;4.22;;;2.80;;
37677;SDS011;23517;50.390;8.616;2024-02-26T13:24:22;3.63;;;2.47;;
37677;SDS011;23517;50.390;8.616;2024-02-26T13:26:55;4.55;;;2.60;;
37677;SDS011;23517;50.390;8.616;2024-02-26T13:29:21;5.63;;;3.08;;
37677;SDS011;23517;50.390;8.616;2024-02-26T13:31:53;4.50;;;2.72;;
37677;SDS011;23517;50.390;8.616;2024-02-26T13:34:29;4.38;;;2.55;;
37677;SDS011;23517;50.390;8.616;2024-02-26T13:36:57;5.00;;;3.38;;
37677;SDS011;23517;50.390;8.616;2024-02-26T13:39:24;4.50;;;3.30;;
37677;SDS011;23517;50.390;8.616;2024-02-26T13:41:53;3.60;;;2.40;;
37677;SDS011;23517;50.390;8.616;2024-02-26T13:44:21;3.80;;;2.67;;
37677;SDS011;23517;50.390;8.616;2024-02-26T13:46:48;3.35;;;2.38;;
37677;SDS011;23517;50.390;8.616;2024-02-26T13:49:15;4.35;;;2.80;;
37677;SDS011;23517;50.390;8.616;2024-02-26T13:51:43;3.72;;;2.45;;
37677;SDS011;23517;50.390;8.616;2024-02-26T13:54:09;3.72;;;2.50;;
37677;SDS011;23517;50.390;8.616;2024-02-26T13:56:36;3.20;;;2.35;;
37677;SDS011;23517;50.390;8.616;2024-02-26T13:59:04;3.40;;;2.40;;
37677;SDS011;23517;50.390;8.616;2024-02-26T14:01:31;4.35;;;2.30;;
37677;SDS011;23517;50.390;8.616;2024-02-26T14:03:59;5.97;;;3.75;;
37677;SDS011;23517;50.390;8.616;2024-02-26T14:06:28;9.25;;;5.45;;
37677;SDS011;23517;50.390;8.616;2024-02-26T14:08:56;7.25;;;4.20;;
37677;SDS011;23517;50.390;8.616;2024-02-26T14:11:23;4.00;;;2.88;;
37677;SDS011;23517;50.390;8.616;2024-02-26T14:13:51;4.05;;;2.60;;
37677;SDS011;23517;50.390;8.616;2024-02-26T14:16:18;4.25;;;3.13;;
37677;SDS011;23517;50.390;8.616;2024-02-26T14:18:46;7.47;;;4.95;;
37677;SDS011;23517;50.390;8.616;2024-02-26T14:21:13;12.40;;;6.07;;
37677;SDS011;23517;50.390;8.616;2024-02-26T14:23:40;11.38;;;5.07;;
37677;SDS011;23517;50.390;8.616;2024-02-26T14:26:08;10.52;;;4.28;;
37677;SDS011;23517;50.390;8.616;2024-02-26T14:28:35;6.70;;;3.60;;
37677;SDS011;23517;50.390;8.616;2024-02-26T14:31:03;5.10;;;2.97;;
37677;SDS011;23517;50.390;8.616;2024-02-26T14:33:32;5.05;;;2.90;;
37677;SDS011;23517;50.390;8.616;2024-02-26T14:35:58;3.65;;;2.30;;
37677;SDS011;23517;50.390;8.616;2024-02-26T14:38:25;4.80;;;2.95;;
37677;SDS011;23517;50.390;8.616;2024-02-26T14:40:52;4.15;;;2.42;;
37677;SDS011;23517;50.390;8.616;2024-02-26T14:43:19;4.40;;;2.92;;
37677;SDS011;23517;50.390;8.616;2024-02-26T14:45:45;7.35;;;4.50;;
37677;SDS011;23517;50.390;8.616;2024-02-26T14:48:12;3.03;;;2.35;;
37677;SDS011;23517;50.390;8.616;2024-02-26T14:50:39;4.15;;;2.63;;
37677;SDS011;23517;50.390;8.616;2024-02-26T14:53:09;3.35;;;2.55;;
37677;SDS011;23517;50.390;8.616;2024-02-26T14:55:37;5.15;;;3.38;;
37677;SDS011;23517;50.390;8.616;2024-02-26T14:58:07;5.55;;;3.97;;